Time;durP1;ratioP1;P1;durP2;ratioP2;P2;SDS_P1;SDS_P2;PMS_P1;PMS_P2;Temp;Humidity;BMP_temperature;BMP_pressure;BME280_temperature;BME280_humidity;BME280_pressure;Samples;Min_cycle;Max_cycle;Signal;HPM_P1;HPM_P2
2021/08/13 00:00:01;;;;;;;9.23;4.70;;;;;;;15.16;79.66;101062.23;1724379;82;21058;-41
2021/08/13 00:02:27;;;;;;;8.68;4.70;;;;;;;15.18;79.83;101068.73;1725463;82;20951;-40
2021/08/13 00:04:55;;;;;;;9.93;5.25;;;;;;;15.19;79.63;101069.12;1719604;82;20968;-40
2021/08/13 00:07:22;;;;;;;8.28;4.70;;;;;;;15.25;79.26;101064.17;1744907;82;21038;-41
2021/08/13 00:09:50;;;;;;;8.48;4.22;;;;;;;15.30;78.88;101072.74;1699104;83;20983;-40
2021/08/13 00:12:16;;;;;;;9.00;4.58;;;;;;;15.30;78.56;101077.49;1725199;81;21020;-40
2021/08/13 00:14:43;;;;;;;6.62;4.90;;;;;;;15.34;78.36;101082.19;1737790;82;20999;-41
2021/08/13 00:17:10;;;;;;;7.05;4.37;;;;;;;15.36;78.26;101087.74;1725363;81;21745;-38
2021/08/13 00:19:37;;;;;;;6.53;4.28;;;;;;;15.40;77.78;101087.22;1722390;82;21560;-39
2021/08/13 00:22:05;;;;;;;8.43;4.60;;;;;;;15.44;77.46;101086.23;1724347;81;21489;-41
2021/08/13 00:24:32;;;;;;;8.93;4.50;;;;;;;15.50;77.14;101083.90;1743543;82;21532;-39
2021/08/13 00:26:58;;;;;;;6.72;4.47;;;;;;;15.55;76.58;101080.70;1748400;82;21008;-40
2021/08/13 00:29:25;;;;;;;9.70;4.53;;;;;;;15.55;76.48;101083.31;1724504;82;21750;-41
2021/08/13 00:31:52;;;;;;;6.58;4.15;;;;;;;15.55;76.24;101085.08;1694527;83;21004;-41
2021/08/13 00:34:20;;;;;;;12.10;4.22;;;;;;;15.50;76.10;101086.05;1719550;82;22028;-40
2021/08/13 00:36:47;;;;;;;9.50;4.40;;;;;;;15.46;76.12;101093.56;1721591;82;21466;-41
2021/08/13 00:39:15;;;;;;;7.55;3.85;;;;;;;15.44;75.87;101091.45;1720681;82;21022;-39
2021/08/13 00:41:42;;;;;;;5.83;4.30;;;;;;;15.43;75.72;101091.04;1722772;82;21125;-40
2021/08/13 00:44:09;;;;;;;6.90;4.45;;;;;;;15.43;75.53;101089.73;1737621;82;21019;-39
2021/08/13 00:46:36;;;;;;;11.57;4.65;;;;;;;15.41;75.44;101091.97;1707816;83;21531;-39
2021/08/13 00:49:13;;;;;;;8.20;4.55;;;;;;;15.40;75.33;101092.44;1691117;83;21488;-40
2021/08/13 00:51:48;;;;;;;4.72;4.12;;;;;;;15.40;75.38;101098.95;1666538;84;21010;-40
2021/08/13 00:54:15;;;;;;;7.10;4.10;;;;;;;15.38;75.11;101096.38;1677885;83;21146;-40
2021/08/13 00:56:46;;;;;;;11.00;4.87;;;;;;;15.37;75.27;101102.95;1676050;83;21013;-39
2021/08/13 00:59:21;;;;;;;6.17;4.77;;;;;;;15.34;75.39;101108.27;1654880;84;20966;-39
2021/08/13 01:01:56;;;;;;;16.27;4.70;;;;;;;15.29;75.37;101107.55;1665729;83;21571;-40
2021/08/13 01:04:22;;;;;;;8.65;4.60;;;;;;;15.24;75.46;101107.66;1655398;83;21552;-38
2021/08/13 01:06:50;;;;;;;8.50;4.28;;;;;;;15.22;75.61;101112.91;1713259;83;21104;-38
2021/08/13 01:09:18;;;;;;;7.15;4.22;;;;;;;15.22;75.61;101114.68;1704245;83;20954;-40
2021/08/13 01:12:05;;;;;;;9.55;3.92;;;;;;;15.18;75.62;101112.59;1693593;83;21041;-39
2021/08/13 01:14:54;;;;;;;10.85;4.20;;;;;;;15.19;75.58;101113.46;1665127;83;21548;-40
2021/08/13 01:17:24;;;;;;;6.92;4.28;;;;;;;15.16;75.51;101109.64;1671070;84;20994;-39
2021/08/13 01:20:29;;;;;;;6.78;3.98;;;;;;;15.15;75.47;101113.11;1686600;84;21026;-40
2021/08/13 01:23:01;;;;;;;12.98;4.45;;;;;;;15.14;75.46;101114.01;1660589;85;21129;-40
2021/08/13 01:25:36;;;;;;;7.10;4.28;;;;;;;15.14;75.41;101118.79;1682550;84;21023;-40
2021/08/13 01:28:15;;;;;;;6.35;4.45;;;;;;;15.14;75.37;101112.70;1672397;84;21006;-39
2021/08/13 01:30:41;;;;;;;8.93;4.28;;;;;;;15.12;75.19;101119.28;1673330;83;21090;-40
2021/08/13 01:33:09;;;;;;;6.47;4.37;;;;;;;15.14;75.13;101112.70;1695699;83;21277;-40
2021/08/13 01:35:44;;;;;;;4.45;4.05;;;;;;;15.11;75.17;101104.97;1689418;83;21548;-39
2021/08/13 01:38:26;;;;;;;7.22;4.20;;;;;;;15.09;75.18;101111.55;1653892;83;21556;-39
2021/08/13 01:40:58;;;;;;;4.25;3.72;;;;;;;15.05;75.35;101114.67;1682536;83;22324;-39
2021/08/13 01:43:25;;;;;;;9.50;3.83;;;;;;;15.02;75.36;101115.19;1659339;84;20966;-40
2021/08/13 01:45:54;;;;;;;4.75;3.55;;;;;;;14.97;75.44;101110.55;1697108;83;22246;-39
2021/08/13 01:48:24;;;;;;;9.18;4.45;;;;;;;14.95;75.59;101117.12;1680112;83;20995;-40
2021/08/13 01:50:53;;;;;;;9.30;3.72;;;;;;;14.92;75.36;101115.91;1676655;82;21003;-39
2021/08/13 01:53:21;;;;;;;4.47;4.05;;;;;;;14.90;75.30;101117.23;1721515;82;21027;-40
2021/08/13 01:55:53;;;;;;;6.85;3.52;;;;;;;14.93;75.26;101122.84;1706349;82;21025;-39
2021/08/13 01:58:22;;;;;;;9.55;4.00;;;;;;;14.94;75.12;101122.77;1703385;82;21232;-39
2021/08/13 02:00:52;;;;;;;5.87;4.30;;;;;;;14.97;74.91;101127.06;1703557;82;20972;-39
2021/08/13 02:03:21;;;;;;;6.33;4.30;;;;;;;15.00;74.96;101130.89;1706766;82;21273;-39
2021/08/13 02:05:52;;;;;;;6.47;4.08;;;;;;;15.01;74.73;101131.73;1718857;82;21952;-39
2021/08/13 02:08:21;;;;;;;5.65;4.08;;;;;;;15.01;74.95;101129.99;1683501;82;20948;-38
2021/08/13 02:10:49;;;;;;;7.90;4.42;;;;;;;15.00;74.80;101131.33;1715784;81;21076;-40
2021/08/13 02:13:18;;;;;;;5.62;4.00;;;;;;;14.98;74.89;101140.94;1694669;82;21448;-40
2021/08/13 02:15:53;;;;;;;5.30;3.98;;;;;;;14.97;74.89;101138.80;1709498;82;20968;-39
2021/08/13 02:18:23;;;;;;;8.60;4.08;;;;;;;14.91;74.83;101141.11;1709661;82;21011;-39
2021/08/13 02:20:55;;;;;;;7.90;4.08;;;;;;;14.89;74.86;101148.11;1723869;82;21509;-39
2021/08/13 02:23:23;;;;;;;7.08;4.67;;;;;;;14.88;74.96;101145.53;1724158;82;21135;-39
2021/08/13 02:25:53;;;;;;;7.40;4.50;;;;;;;14.88;75.14;101151.61;1725885;82;21269;-39
2021/08/13 02:28:20;;;;;;;5.45;4.65;;;;;;;14.85;75.15;101150.39;1726003;82;20984;-38
2021/08/13 02:30:48;;;;;;;4.45;3.90;;;;;;;14.82;75.41;101153.08;1717725;82;20974;-40
2021/08/13 02:33:15;;;;;;;8.73;4.58;;;;;;;14.76;75.53;101150.60;1724478;82;20977;-38
2021/08/13 02:35:44;;;;;;;7.42;4.20;;;;;;;14.72;75.69;101154.19;1710300;82;21040;-40
2021/08/13 02:38:22;;;;;;;4.92;4.10;;;;;;;14.68;75.86;101157.73;1707924;82;20999;-40
2021/08/13 02:40:59;;;;;;;9.13;3.80;;;;;;;14.61;76.24;101157.89;1713845;82;21059;-40
2021/08/13 02:43:39;;;;;;;5.20;3.83;;;;;;;14.60;76.51;101160.09;1708382;82;21000;-41
2021/08/13 02:46:06;;;;;;;5.40;3.70;;;;;;;14.61;76.78;101157.89;1711121;82;21003;-38
2021/08/13 02:48:35;;;;;;;6.60;3.87;;;;;;;14.60;76.98;101161.39;1732622;82;21041;-40
2021/08/13 02:51:04;;;;;;;6.58;4.05;;;;;;;14.57;76.99;101169.28;1736454;82;21086;-39
2021/08/13 02:53:37;;;;;;;5.33;3.62;;;;;;;14.58;77.10;101163.61;1723657;82;21072;-39
2021/08/13 02:56:12;;;;;;;5.72;3.77;;;;;;;14.57;77.16;101165.80;1735784;81;20975;-41
2021/08/13 02:58:51;;;;;;;8.05;4.35;;;;;;;14.51;77.19;101161.16;1718602;82;20936;-40
2021/08/13 03:01:21;;;;;;;4.72;4.12;;;;;;;14.44;77.28;101164.80;1730502;82;21266;-41
2021/08/13 03:03:50;;;;;;;6.47;4.58;;;;;;;14.40;77.55;101168.81;1728689;82;21026;-40
2021/08/13 03:06:19;;;;;;;8.65;4.25;;;;;;;14.36;77.60;101171.48;1733272;81;21529;-40
2021/08/13 03:08:47;;;;;;;5.45;4.28;;;;;;;14.33;78.04;101167.66;1739503;82;20999;-41
2021/08/13 03:11:15;;;;;;;7.85;3.67;;;;;;;14.32;78.28;101177.66;1735042;82;20936;-41
2021/08/13 03:13:43;;;;;;;8.85;4.35;;;;;;;14.28;78.46;101182.53;1698984;82;21866;-39
2021/08/13 03:16:12;;;;;;;8.63;4.30;;;;;;;14.24;78.64;101183.47;1747471;82;21497;-40
2021/08/13 03:18:42;;;;;;;7.30;3.52;;;;;;;14.23;78.75;101184.36;1684766;83;21075;-39
2021/08/13 03:21:10;;;;;;;8.18;3.95;;;;;;;14.25;78.81;101182.58;1725789;81;20943;-40
2021/08/13 03:23:38;;;;;;;5.75;4.35;;;;;;;14.25;78.98;101183.88;1720647;82;20991;-40
2021/08/13 03:26:07;;;;;;;6.58;4.05;;;;;;;14.28;79.02;101185.14;1723656;81;20971;-41
2021/08/13 03:28:34;;;;;;;4.00;3.65;;;;;;;14.31;79.05;101194.18;1740371;82;21512;-39
2021/08/13 03:31:02;;;;;;;5.53;3.98;;;;;;;14.37;79.15;101197.06;1734992;82;21011;-40
2021/08/13 03:33:30;;;;;;;6.33;3.87;;;;;;;14.42;79.34;101195.67;1697047;82;21043;-40
2021/08/13 03:35:58;;;;;;;5.20;3.72;;;;;;;14.46;79.11;101202.52;1726632;82;22209;-39
2021/08/13 03:38:26;;;;;;;7.97;3.80;;;;;;;14.50;78.66;101200.25;1726387;82;21196;-40
2021/08/13 03:40:53;;;;;;;5.42;3.92;;;;;;;14.58;78.46;101212.67;1721676;82;20962;-40
2021/08/13 03:43:20;;;;;;;11.43;4.12;;;;;;;14.63;78.37;101221.23;1725668;82;20999;-40
2021/08/13 03:45:47;;;;;;;13.22;4.58;;;;;;;14.66;78.36;101219.86;1734578;82;20972;-40
2021/08/13 03:48:13;;;;;;;4.47;3.77;;;;;;;14.70;78.32;101215.44;1731948;82;21046;-40
2021/08/13 03:50:40;;;;;;;8.90;4.50;;;;;;;14.76;78.25;101217.92;1729678;82;21131;-39
2021/08/13 03:53:07;;;;;;;11.22;4.05;;;;;;;14.84;78.39;101215.57;1721871;82;21008;-40
2021/08/13 03:55:34;;;;;;;5.62;3.92;;;;;;;14.91;78.55;101211.48;1720830;82;20984;-40
2021/08/13 03:58:02;;;;;;;6.65;3.90;;;;;;;15.02;78.60;101216.43;1674273;82;20955;-40
2021/08/13 04:00:29;;;;;;;8.18;4.35;;;;;;;15.19;78.35;101215.16;1714353;82;20983;-39
2021/08/13 04:02:56;;;;;;;5.78;3.52;;;;;;;15.39;77.65;101222.45;1723727;82;21121;-40
2021/08/13 04:05:30;;;;;;;7.95;3.80;;;;;;;15.62;77.17;101226.20;1719165;82;21478;-39
2021/08/13 04:07:56;;;;;;;10.75;4.92;;;;;;;15.87;76.62;101224.22;1717712;82;20936;-40
2021/08/13 04:10:24;;;;;;;3.45;3.17;;;;;;;16.05;75.64;101229.38;1726774;82;21017;-40
2021/08/13 04:12:51;;;;;;;15.63;4.30;;;;;;;16.25;75.23;101231.39;1690431;83;21032;-40
2021/08/13 04:15:20;;;;;;;4.92;3.83;;;;;;;16.43;74.35;101240.89;1675419;84;22149;-41
2021/08/13 04:17:48;;;;;;;5.92;4.08;;;;;;;16.60;73.99;101241.23;1672107;84;21024;-40
2021/08/13 04:20:16;;;;;;;7.22;3.70;;;;;;;16.78;73.44;101239.80;1680539;84;20972;-41
2021/08/13 04:22:44;;;;;;;7.67;4.42;;;;;;;16.95;72.58;101245.77;1670638;85;21528;-40
2021/08/13 04:25:11;;;;;;;5.00;3.22;;;;;;;17.16;72.00;101242.09;1719949;82;21059;-40
2021/08/13 04:27:39;;;;;;;4.37;3.83;;;;;;;17.36;71.49;101247.94;1719852;82;20964;-39
2021/08/13 04:30:08;;;;;;;7.05;3.77;;;;;;;17.57;70.65;101245.48;1738675;82;20940;-40
2021/08/13 04:32:39;;;;;;;5.67;4.05;;;;;;;17.80;69.72;101251.20;1716915;82;21063;-40
2021/08/13 04:35:09;;;;;;;7.12;3.83;;;;;;;18.03;69.06;101256.08;1707974;82;20980;-40
2021/08/13 04:37:36;;;;;;;6.05;3.85;;;;;;;18.30;68.04;101256.42;1727936;82;20983;-41
2021/08/13 04:40:05;;;;;;;4.72;3.65;;;;;;;18.50;66.83;101262.20;1728165;82;21286;-40
2021/08/13 04:42:35;;;;;;;9.73;3.65;;;;;;;18.62;65.93;101259.11;1720013;82;21007;-40
2021/08/13 04:45:03;;;;;;;4.62;3.52;;;;;;;18.79;66.03;101256.25;1727218;82;21512;-40
2021/08/13 04:47:29;;;;;;;7.90;4.25;;;;;;;18.98;65.24;101257.72;1724705;82;20988;-40
2021/08/13 04:49:56;;;;;;;5.58;4.15;;;;;;;19.14;64.70;101250.50;1735833;82;21513;-39
2021/08/13 04:52:23;;;;;;;8.55;3.45;;;;;;;19.31;64.04;101244.53;1707459;82;21245;-40
2021/08/13 04:54:49;;;;;;;8.13;3.60;;;;;;;19.48;63.80;101250.39;1748026;81;21019;-40
2021/08/13 04:57:16;;;;;;;6.45;3.42;;;;;;;19.73;62.62;101242.75;1724303;82;21039;-40
2021/08/13 04:59:43;;;;;;;5.10;3.35;;;;;;;19.97;60.68;101240.81;1733795;82;22205;-40
2021/08/13 05:02:12;;;;;;;5.60;3.90;;;;;;;20.14;60.76;101250.54;1732180;82;21000;-40
2021/08/13 05:04:39;;;;;;;8.18;3.80;;;;;;;20.28;58.92;101250.37;1719099;82;21140;-40
2021/08/13 05:07:05;;;;;;;7.33;4.00;;;;;;;20.35;58.40;101253.97;1723270;82;21018;-40
2021/08/13 05:09:35;;;;;;;7.90;4.20;;;;;;;20.42;57.09;101248.41;1693986;82;20937;-41
2021/08/13 05:12:03;;;;;;;6.72;4.00;;;;;;;20.44;57.35;101250.50;1732630;82;21397;-41
2021/08/13 05:14:29;;;;;;;7.30;3.75;;;;;;;20.53;57.96;101249.60;1697942;83;21003;-41
2021/08/13 05:16:57;;;;;;;8.45;3.75;;;;;;;20.70;57.93;101251.02;1729402;82;22624;-41
2021/08/13 05:19:24;;;;;;;10.28;3.77;;;;;;;20.83;57.16;101246.87;1685795;83;21006;-40
2021/08/13 05:21:51;;;;;;;5.20;4.00;;;;;;;20.87;56.36;101248.45;1727667;82;20976;-40
2021/08/13 05:24:19;;;;;;;6.92;3.50;;;;;;;20.89;56.80;101251.86;1721502;82;20941;-41
2021/08/13 05:26:45;;;;;;;8.78;4.08;;;;;;;21.01;56.34;101256.11;1731307;82;21082;-40
2021/08/13 05:29:13;;;;;;;4.45;3.80;;;;;;;21.05;56.52;101253.27;1728228;82;21158;-41
2021/08/13 05:31:39;;;;;;;5.60;4.33;;;;;;;21.16;56.60;101263.70;1720593;82;21004;-41
2021/08/13 05:34:06;;;;;;;12.13;3.72;;;;;;;21.15;55.98;101264.63;1730308;82;20968;-41
2021/08/13 05:36:32;;;;;;;6.33;3.70;;;;;;;21.04;56.48;101266.48;1735071;82;20995;-40
2021/08/13 05:39:00;;;;;;;5.37;3.87;;;;;;;20.90;56.34;101270.66;1721811;81;20952;-40
2021/08/13 05:41:27;;;;;;;6.05;3.33;;;;;;;20.73;56.68;101268.83;1703306;82;21003;-39
2021/08/13 05:43:54;;;;;;;5.62;3.50;;;;;;;20.61;57.07;101263.70;1748086;81;21588;-40
2021/08/13 05:46:21;;;;;;;5.00;3.87;;;;;;;20.48;57.68;101270.45;1710180;82;20979;-40
2021/08/13 05:48:49;;;;;;;4.53;2.95;;;;;;;20.36;58.32;101267.94;1707660;83;20975;-40
2021/08/13 05:51:15;;;;;;;3.87;3.10;;;;;;;20.27;58.99;101267.07;1668112;84;21053;-39
2021/08/13 05:53:42;;;;;;;3.62;3.30;;;;;;;20.29;59.66;101262.59;1686990;83;21146;-40
2021/08/13 05:56:09;;;;;;;5.58;3.12;;;;;;;20.31;59.44;101265.52;1691042;84;20951;-40
2021/08/13 05:58:36;;;;;;;5.75;3.67;;;;;;;20.39;59.39;101266.03;1691269;84;21477;-39
2021/08/13 06:01:03;;;;;;;3.58;2.92;;;;;;;20.49;58.01;101268.22;1680769;84;21550;-40
2021/08/13 06:03:29;;;;;;;4.05;3.27;;;;;;;20.56;59.06;101267.47;1687115;83;21397;-39
2021/08/13 06:05:56;;;;;;;7.35;2.87;;;;;;;20.60;58.34;101268.58;1639314;86;21740;-39
2021/08/13 06:08:22;;;;;;;5.35;2.80;;;;;;;20.65;58.94;101268.33;1664943;84;21561;-39
2021/08/13 06:10:49;;;;;;;3.90;2.95;;;;;;;20.76;58.43;101265.19;1663438;84;20912;-40
2021/08/13 06:13:18;;;;;;;3.10;2.85;;;;;;;20.80;58.20;101270.71;1687890;84;21030;-40
2021/08/13 06:15:46;;;;;;;8.03;3.25;;;;;;;20.89;57.80;101272.91;1691355;83;21616;-39
2021/08/13 06:18:13;;;;;;;2.98;2.72;;;;;;;21.01;57.35;101270.14;1661934;85;21143;-40
2021/08/13 06:20:41;;;;;;;7.17;3.20;;;;;;;21.16;56.87;101273.78;1680370;84;21035;-40
2021/08/13 06:23:10;;;;;;;8.20;3.45;;;;;;;21.25;56.20;101273.30;1685050;84;21030;-39
2021/08/13 06:25:38;;;;;;;4.60;3.08;;;;;;;21.29;56.31;101266.56;1691671;84;22143;-40
2021/08/13 06:28:06;;;;;;;3.90;3.45;;;;;;;21.33;56.15;101262.39;1690321;83;21042;-40
2021/08/13 06:30:33;;;;;;;5.42;3.30;;;;;;;21.41;56.38;101263.31;1701284;83;21166;-39
2021/08/13 06:33:01;;;;;;;7.20;3.10;;;;;;;21.52;55.02;101260.97;1691028;83;20978;-41
2021/08/13 06:35:29;;;;;;;5.00;2.60;;;;;;;21.64;54.46;101258.64;1706180;83;21063;-38
2021/08/13 06:37:56;;;;;;;4.10;3.37;;;;;;;21.74;54.54;101262.99;1706191;83;21118;-40
2021/08/13 06:40:24;;;;;;;3.45;3.15;;;;;;;21.83;53.86;101259.86;1676548;84;21013;-41
2021/08/13 06:42:51;;;;;;;3.50;2.80;;;;;;;21.79;53.92;101253.89;1704516;82;21101;-39
2021/08/13 06:45:21;;;;;;;4.10;2.95;;;;;;;21.81;53.85;101254.66;1702067;83;21022;-41
2021/08/13 06:47:48;;;;;;;6.00;2.85;;;;;;;21.87;53.76;101263.19;1696566;83;21459;-40
2021/08/13 06:50:15;;;;;;;5.08;2.90;;;;;;;21.96;53.14;101258.73;1709067;82;21558;-39
2021/08/13 06:52:44;;;;;;;4.28;2.90;;;;;;;22.08;51.36;101254.58;1706642;82;20973;-40
2021/08/13 06:55:11;;;;;;;4.40;2.55;;;;;;;22.10;51.42;101264.12;1718831;82;21122;-40
2021/08/13 06:57:39;;;;;;;2.60;2.27;;;;;;;22.17;51.79;101259.34;1707008;82;21035;-39
2021/08/13 07:00:09;;;;;;;4.00;2.70;;;;;;;22.20;51.41;101267.08;1729817;82;21023;-40
2021/08/13 07:02:37;;;;;;;2.40;2.20;;;;;;;22.23;50.97;101266.06;1683820;82;22629;-41
2021/08/13 07:05:04;;;;;;;4.78;2.40;;;;;;;22.32;52.68;101268.67;1727997;82;21028;-41
2021/08/13 07:07:31;;;;;;;4.42;2.50;;;;;;;22.39;51.84;101270.89;1731793;82;21755;-39
2021/08/13 07:10:07;;;;;;;2.72;2.40;;;;;;;22.49;51.69;101271.26;1726162;82;20893;-41
2021/08/13 07:12:37;;;;;;;6.28;2.83;;;;;;;22.51;51.60;101266.75;1733423;82;20980;-40
2021/08/13 07:15:05;;;;;;;4.83;2.95;;;;;;;22.51;51.25;101268.52;1732559;82;20964;-40
2021/08/13 07:17:32;;;;;;;3.22;2.92;;;;;;;22.58;49.65;101263.75;1690387;82;21087;-40
2021/08/13 07:19:59;;;;;;;3.27;2.72;;;;;;;22.62;49.67;101267.91;1690961;82;21127;-41
2021/08/13 07:22:25;;;;;;;4.22;2.95;;;;;;;22.67;49.10;101265.86;1714255;82;21056;-40
2021/08/13 07:24:52;;;;;;;5.58;2.47;;;;;;;22.75;49.67;101266.75;1712454;81;21632;-40
2021/08/13 07:27:19;;;;;;;2.75;2.37;;;;;;;22.79;50.01;101267.81;1722944;82;21064;-40
2021/08/13 07:29:45;;;;;;;2.47;2.27;;;;;;;22.92;49.28;101266.63;1712854;82;21134;-39
2021/08/13 07:32:13;;;;;;;3.00;2.30;;;;;;;23.02;48.43;101274.88;1717697;82;21923;-39
2021/08/13 07:34:40;;;;;;;2.33;2.17;;;;;;;23.08;47.67;101266.59;1734253;82;21565;-41
2021/08/13 07:37:06;;;;;;;2.85;2.42;;;;;;;23.06;47.23;101267.14;1709283;82;21932;-41
2021/08/13 07:39:32;;;;;;;3.27;2.35;;;;;;;23.10;47.89;101261.20;1705353;84;21502;-41
2021/08/13 07:42:00;;;;;;;6.85;3.20;;;;;;;23.23;48.14;101267.92;1705603;82;21265;-41
2021/08/13 07:44:26;;;;;;;3.25;2.67;;;;;;;23.30;47.06;101261.39;1710679;82;21044;-41
2021/08/13 07:46:53;;;;;;;5.45;3.10;;;;;;;23.34;45.31;101261.58;1690466;82;21012;-40
2021/08/13 07:49:20;;;;;;;9.93;2.83;;;;;;;23.37;46.30;101257.92;1711810;82;20921;-41
2021/08/13 07:51:47;;;;;;;9.70;3.10;;;;;;;23.52;46.13;101249.05;1732342;82;20988;-39
2021/08/13 07:54:16;;;;;;;3.30;2.87;;;;;;;23.71;44.67;101253.67;1734192;82;22134;-41
2021/08/13 07:56:44;;;;;;;5.47;2.62;;;;;;;23.79;45.84;101265.47;1734073;82;21098;-40
2021/08/13 07:59:12;;;;;;;4.95;2.95;;;;;;;23.89;44.65;101259.14;1734374;82;20959;-41
2021/08/13 08:01:41;;;;;;;5.28;2.35;;;;;;;23.99;45.53;101255.91;1719280;82;21239;-42
2021/08/13 08:04:07;;;;;;;3.30;3.00;;;;;;;24.19;44.51;101256.86;1713859;82;21004;-41
2021/08/13 08:06:34;;;;;;;5.75;3.15;;;;;;;24.31;44.14;101246.47;1720860;81;20987;-41
2021/08/13 08:09:00;;;;;;;5.08;2.90;;;;;;;24.56;44.10;101251.48;1715012;82;21974;-41
2021/08/13 08:11:27;;;;;;;7.72;3.00;;;;;;;24.64;42.24;101256.66;1704832;84;21027;-41
2021/08/13 08:13:53;;;;;;;5.12;2.98;;;;;;;24.62;42.69;101247.94;1706929;82;20925;-41
2021/08/13 08:16:19;;;;;;;6.42;2.83;;;;;;;24.72;44.27;101231.47;1696352;82;20972;-41
2021/08/13 08:18:46;;;;;;;3.02;2.83;;;;;;;24.89;44.25;101243.16;1733260;82;20969;-41
2021/08/13 08:21:12;;;;;;;3.80;2.85;;;;;;;25.19;43.25;101237.19;1717093;82;21787;-41
2021/08/13 08:23:39;;;;;;;3.77;3.33;;;;;;;25.40;43.28;101232.23;1713026;82;20949;-39
2021/08/13 08:26:05;;;;;;;3.83;2.58;;;;;;;25.72;41.01;101236.25;1723291;82;21068;-41
2021/08/13 08:28:31;;;;;;;5.92;2.77;;;;;;;25.83;40.70;101237.18;1720570;82;21906;-40
2021/08/13 08:30:58;;;;;;;3.77;3.10;;;;;;;25.84;40.82;101251.30;1733812;82;21019;-40
2021/08/13 08:33:24;;;;;;;3.22;2.92;;;;;;;25.82;40.43;101246.09;1733321;82;21326;-40
2021/08/13 08:35:50;;;;;;;6.15;3.25;;;;;;;25.97;42.49;101247.30;1734206;82;21588;-41
2021/08/13 08:38:17;;;;;;;7.50;3.33;;;;;;;26.16;42.02;101249.95;1733157;82;21007;-40
2021/08/13 08:40:43;;;;;;;3.30;2.87;;;;;;;26.19;39.68;101248.44;1717587;81;21089;-41
2021/08/13 08:43:10;;;;;;;2.85;2.65;;;;;;;25.93;39.56;101258.59;1715538;82;20976;-41
2021/08/13 08:45:37;;;;;;;3.33;2.92;;;;;;;25.73;38.59;101252.05;1709249;82;21125;-42
2021/08/13 08:48:07;;;;;;;2.83;2.62;;;;;;;25.59;40.53;101246.40;1722819;81;21003;-41
2021/08/13 08:50:35;;;;;;;5.83;2.80;;;;;;;25.79;40.03;101251.61;1704557;82;20987;-42
2021/08/13 08:53:09;;;;;;;5.90;3.20;;;;;;;26.10;40.06;101252.06;1729159;82;21281;-43
2021/08/13 08:55:36;;;;;;;6.90;3.25;;;;;;;26.37;37.72;101255.03;1730436;82;20964;-42
2021/08/13 08:58:02;;;;;;;4.85;3.30;;;;;;;26.50;37.33;101255.47;1709986;82;21062;-40
2021/08/13 09:00:29;;;;;;;2.60;2.40;;;;;;;26.58;39.14;101258.39;1729405;82;21616;-41
2021/08/13 09:02:55;;;;;;;3.92;3.05;;;;;;;26.50;37.60;101258.13;1736222;82;21051;-41
2021/08/13 09:05:21;;;;;;;2.80;2.60;;;;;;;26.49;37.02;101253.78;1729972;81;20971;-40
2021/08/13 09:07:47;;;;;;;3.77;2.83;;;;;;;26.45;37.88;101245.19;1698669;82;21059;-40
2021/08/13 09:10:14;;;;;;;4.33;3.08;;;;;;;26.55;38.44;101241.38;1737740;82;21128;-40
2021/08/13 09:12:42;;;;;;;3.47;3.22;;;;;;;26.71;38.63;101237.59;1732196;81;21019;-40
2021/08/13 09:15:38;;;;;;;5.25;2.80;;;;;;;26.99;36.77;101238.19;1699814;82;21083;-39
2021/08/13 09:18:20;;;;;;;3.25;2.72;;;;;;;27.00;36.98;101230.09;1706368;83;21006;-40
2021/08/13 09:20:52;;;;;;;8.80;3.00;;;;;;;27.12;35.41;101234.94;1732920;82;20948;-40
2021/08/13 09:23:46;;;;;;;7.25;3.37;;;;;;;27.02;36.84;101245.92;1735123;82;21552;-41
2021/08/13 09:26:20;;;;;;;6.28;3.22;;;;;;;26.86;34.57;101245.73;1735664;82;21516;-40
2021/08/13 09:29:06;;;;;;;4.53;3.40;;;;;;;26.74;36.56;101233.37;1717749;82;20955;-41
2021/08/13 09:31:51;;;;;;;5.33;3.00;;;;;;;26.95;37.82;101231.78;1733152;82;20972;-40
2021/08/13 09:34:32;;;;;;;3.17;2.95;;;;;;;27.08;37.38;101233.02;1715200;82;21005;-40
2021/08/13 09:37:00;;;;;;;5.45;2.85;;;;;;;27.17;37.02;101234.59;1731839;82;20952;-42
2021/08/13 09:39:30;;;;;;;3.52;3.05;;;;;;;27.32;37.34;101237.88;1725276;82;21044;-41
2021/08/13 09:41:59;;;;;;;3.20;2.90;;;;;;;27.63;34.93;101224.39;1715453;82;21498;-41
2021/08/13 09:44:30;;;;;;;4.45;3.15;;;;;;;27.91;34.02;101223.98;1727236;82;21003;-42
2021/08/13 09:47:00;;;;;;;4.80;3.45;;;;;;;27.87;34.69;101223.87;1742500;82;20979;-42
2021/08/13 09:49:28;;;;;;;6.08;3.40;;;;;;;28.02;34.36;101221.33;1721836;81;22292;-42
2021/08/13 09:51:55;;;;;;;4.10;3.40;;;;;;;28.11;34.31;101231.20;1706754;82;20945;-41
2021/08/13 09:54:28;;;;;;;8.93;3.70;;;;;;;27.98;35.65;101233.19;1706406;82;21436;-41
2021/08/13 09:57:08;;;;;;;3.80;3.33;;;;;;;27.60;36.09;101226.44;1712820;82;20897;-40
2021/08/13 09:59:36;;;;;;;6.08;3.33;;;;;;;27.23;37.49;101223.02;1712914;82;21051;-40
2021/08/13 10:02:13;;;;;;;4.35;3.33;;;;;;;27.07;36.92;101225.16;1712268;82;21167;-42
2021/08/13 10:04:41;;;;;;;8.48;3.37;;;;;;;26.99;36.26;101235.03;1692222;82;21027;-42
2021/08/13 10:07:09;;;;;;;4.28;3.05;;;;;;;27.02;36.93;101228.66;1715585;82;20952;-40
2021/08/13 10:09:36;;;;;;;8.70;3.72;;;;;;;27.42;37.86;101236.68;1694885;82;21021;-41
2021/08/13 10:12:06;;;;;;;3.83;2.98;;;;;;;27.85;38.13;101239.11;1721775;82;22328;-41
2021/08/13 10:14:40;;;;;;;3.85;3.20;;;;;;;27.90;35.28;101239.11;1722488;82;21008;-41
2021/08/13 10:17:17;;;;;;;4.10;3.12;;;;;;;27.78;35.62;101236.95;1732814;82;21012;-42
2021/08/13 10:19:49;;;;;;;5.22;3.25;;;;;;;27.63;36.39;101234.17;1669084;85;21012;-41
2021/08/13 10:22:21;;;;;;;3.95;2.95;;;;;;;27.52;37.22;101227.90;1721394;82;21552;-41
2021/08/13 10:24:48;;;;;;;7.80;3.27;;;;;;;27.52;35.46;101235.88;1719321;82;20932;-42
2021/08/13 10:27:16;;;;;;;6.35;3.30;;;;;;;27.34;36.77;101239.46;1716696;82;21165;-42
2021/08/13 10:29:47;;;;;;;3.20;2.87;;;;;;;27.33;37.91;101235.58;1719691;82;20881;-41
2021/08/13 10:32:19;;;;;;;4.28;3.33;;;;;;;27.60;36.36;101230.42;1698766;82;21591;-41
2021/08/13 10:34:47;;;;;;;4.80;3.33;;;;;;;27.48;36.65;101238.38;1720738;82;21008;-43
2021/08/13 10:37:14;;;;;;;5.67;3.05;;;;;;;27.64;37.89;101227.41;1714397;82;21032;-42
2021/08/13 10:39:44;;;;;;;5.97;3.27;;;;;;;27.80;35.28;101228.37;1680788;84;21030;-41
2021/08/13 10:42:18;;;;;;;7.78;3.00;;;;;;;27.71;36.25;101223.80;1676905;84;21080;-41
2021/08/13 10:44:53;;;;;;;4.90;2.95;;;;;;;27.73;36.68;101227.64;1683033;84;21111;-42
2021/08/13 10:47:24;;;;;;;3.08;2.87;;;;;;;27.84;34.66;101219.67;1671411;84;21501;-41
2021/08/13 10:49:50;;;;;;;3.98;2.77;;;;;;;27.77;35.36;101219.31;1692800;83;21542;-43
2021/08/13 10:52:17;;;;;;;4.22;3.37;;;;;;;27.93;36.64;101224.23;1696299;83;21091;-43
2021/08/13 10:54:46;;;;;;;4.35;3.27;;;;;;;27.95;36.78;101220.14;1655518;83;21646;-42
2021/08/13 10:57:15;;;;;;;4.28;2.80;;;;;;;27.78;37.00;101218.34;1693095;83;21025;-42
2021/08/13 10:59:52;;;;;;;4.05;3.45;;;;;;;27.77;35.22;101223.30;1644074;83;21057;-41
2021/08/13 11:04:48;;;;;;;5.25;3.17;;;;;;;27.82;36.03;101214.96;1797186;78;22799;-42
2021/08/13 11:07:36;;;;;;;7.45;3.37;;;;;;;27.43;36.75;101217.11;1763788;80;20947;-42
2021/08/13 11:10:09;;;;;;;4.40;3.00;;;;;;;27.40;36.93;101219.52;1736274;80;21849;-41
2021/08/13 11:12:37;;;;;;;5.33;3.00;;;;;;;27.50;35.53;101216.52;1685448;81;20932;-42
2021/08/13 11:15:05;;;;;;;35.05;4.10;;;;;;;27.55;37.15;101214.86;1667156;83;21571;-40
2021/08/13 11:17:42;;;;;;;4.70;2.85;;;;;;;27.66;37.31;101208.66;1735158;81;21543;-41
2021/08/13 11:20:14;;;;;;;4.97;3.40;;;;;;;27.89;36.91;101210.83;1698988;83;20999;-41
2021/08/13 11:22:43;;;;;;;3.20;2.83;;;;;;;27.96;37.16;101213.34;1718522;82;21174;-40
2021/08/13 11:25:12;;;;;;;2.80;2.60;;;;;;;28.05;36.10;101207.77;1720309;82;21023;-41
2021/08/13 11:27:39;;;;;;;6.35;3.47;;;;;;;28.16;36.33;101218.05;1720793;82;20979;-41
2021/08/13 11:30:10;;;;;;;2.90;2.70;;;;;;;28.09;35.25;101209.70;1733648;81;21915;-41
2021/08/13 11:32:38;;;;;;;5.15;2.98;;;;;;;27.95;35.75;101214.31;1679752;83;21105;-40
2021/08/13 11:35:10;;;;;;;7.47;2.37;;;;;;;27.77;34.67;101220.64;1704525;83;21097;-40